createdAt,value
2023-04-06T00:00:16.369Z,0.474548
2023-04-06T00:03:41.571Z,0.474548
2023-04-06T00:07:06.684Z,0.444336
2023-04-06T00:10:31.836Z,0.444336
2023-04-06T00:13:57.035Z,0.444336
2023-04-06T00:17:22.161Z,0.444336
2023-04-06T00:20:47.344Z,0.444336
2023-04-06T00:24:12.507Z,0.424194
2023-04-06T00:27:37.694Z,0.383911
2023-04-06T00:31:02.882Z,0.383911
2023-04-06T00:34:28.037Z,0.464478
2023-04-06T00:37:53.205Z,0.595398
2023-04-06T00:41:18.360Z,0.827026
2023-04-06T00:44:43.530Z,1.11908
2023-04-06T00:48:08.778Z,1.320496
2023-04-06T00:51:33.877Z,1.471558
2023-04-06T00:54:59.040Z,1.552124
2023-04-06T00:58:24.217Z,1.62262
2023-04-06T01:01:49.410Z,1.63269
2023-04-06T01:05:14.617Z,1.662903
2023-04-06T01:08:39.748Z,1.662903
2023-04-06T01:12:04.884Z,1.662903
2023-04-06T01:15:30.037Z,1.773682
2023-04-06T01:18:55.217Z,1.88446
2023-04-06T01:22:20.383Z,1.88446
2023-04-06T01:25:45.551Z,1.914673
2023-04-06T01:29:10.709Z,1.934814
2023-04-06T01:32:35.921Z,1.844177
2023-04-06T01:36:01.084Z,1.813965
2023-04-06T01:39:26.253Z,1.763611
2023-04-06T01:42:51.374Z,1.703186
2023-04-06T01:46:16.589Z,1.693115
2023-04-06T01:49:41.730Z,1.62262
2023-04-06T01:53:06.904Z,1.63269
2023-04-06T01:56:32.111Z,1.662903
2023-04-06T01:59:57.261Z,1.723328
2023-04-06T02:03:22.433Z,1.733398
2023-04-06T02:06:47.586Z,1.723328
2023-04-06T02:10:12.772Z,1.723328
2023-04-06T02:13:37.966Z,1.703186
2023-04-06T02:17:03.121Z,1.733398
2023-04-06T02:20:28.249Z,1.703186
2023-04-06T02:23:53.425Z,1.733398
2023-04-06T02:27:18.605Z,1.723328
2023-04-06T02:30:43.793Z,1.703186
2023-04-06T02:34:08.955Z,1.652832
2023-04-06T02:37:34.126Z,1.62262
2023-04-06T02:40:59.282Z,1.592407
2023-04-06T02:44:24.512Z,1.602478
2023-04-06T02:47:49.732Z,1.50177
2023-04-06T02:51:14.831Z,1.521912
2023-04-06T02:54:39.988Z,1.552124
2023-04-06T02:58:05.167Z,1.602478
2023-04-06T03:01:30.348Z,1.602478
2023-04-06T03:04:55.515Z,1.471558
2023-04-06T03:08:20.682Z,1.411133
2023-04-06T03:11:45.858Z,1.360779
2023-04-06T03:15:11.037Z,1.219788
2023-04-06T03:18:36.205Z,1.088867
2023-04-06T03:22:01.394Z,1.038513
2023-04-06T03:25:26.532Z,1.109009
2023-04-06T03:28:51.712Z,1.11908
2023-04-06T03:32:16.892Z,1.199646
2023-04-06T03:35:42.107Z,1.199646
2023-04-06T03:39:07.426Z,1.179504
2023-04-06T03:42:32.402Z,1.159363
2023-04-06T03:45:57.573Z,1.109009
2023-04-06T03:49:22.746Z,1.078796
2023-04-06T03:52:47.917Z,1.088867
2023-04-06T03:56:13.127Z,1.058655
2023-04-06T03:59:38.300Z,1.038513
2023-04-06T04:03:03.578Z,0.937805
2023-04-06T04:06:28.630Z,0.978088
2023-04-06T04:09:53.795Z,0.968018
2023-04-06T04:13:19.007Z,0.99823
2023-04-06T04:16:44.204Z,0.99823
2023-04-06T04:20:09.359Z,1.078796
2023-04-06T04:23:36.688Z,1.058655
2023-04-06T04:26:59.713Z,1.058655
2023-04-06T04:30:24.933Z,0.968018
2023-04-06T04:33:50.115Z,0.968018
2023-04-06T04:37:15.313Z,0.907593
2023-04-06T04:40:40.510Z,0.897522
2023-04-06T04:44:05.703Z,0.796814
2023-04-06T04:47:30.930Z,0.796814
2023-04-06T04:50:56.051Z,0.796814
2023-04-06T04:54:21.228Z,0.786743
2023-04-06T04:57:46.406Z,0.786743
2023-04-06T05:01:11.709Z,0.716248
2023-04-06T05:04:36.894Z,0.716248
2023-04-06T05:08:02.105Z,0.675964
2023-04-06T05:11:27.355Z,0.49469
2023-04-06T05:14:52.603Z,0.49469
2023-04-06T05:18:17.846Z,0.575256
2023-04-06T05:21:43.140Z,0.605469
2023-04-06T05:25:08.343Z,0.605469
2023-04-06T05:28:34.260Z,0.686035
2023-04-06T05:31:59.444Z,0.686035
2023-04-06T05:35:24.695Z,0.796814
2023-04-06T05:38:49.905Z,0.87738
2023-04-06T05:42:15.098Z,0.907593
2023-04-06T05:45:40.298Z,0.957947
2023-04-06T05:49:06.956Z,1.048584
2023-04-06T05:52:30.739Z,1.199646
2023-04-06T05:55:55.958Z,1.37085
2023-04-06T05:59:21.211Z,1.50177
2023-04-06T06:02:46.436Z,1.662903
2023-04-06T06:06:11.607Z,1.803894
2023-04-06T06:09:36.839Z,1.88446
2023-04-06T06:13:02.089Z,1.954956
2023-04-06T06:16:27.249Z,2.247009
2023-04-06T06:19:52.449Z,2.37793
2023-04-06T06:23:17.655Z,2.559204
2023-04-06T06:26:42.892Z,2.710266
2023-04-06T06:30:08.145Z,2.780762
2023-04-06T06:33:33.509Z,2.851257
2023-04-06T06:36:58.654Z,2.951965
2023-04-06T06:40:23.841Z,2.972107
2023-04-06T06:43:49.030Z,3.052673
2023-04-06T06:47:14.240Z,3.203735
2023-04-06T06:50:39.415Z,3.294373
2023-04-06T06:54:04.655Z,3.465576
2023-04-06T06:57:29.884Z,3.536072
2023-04-06T07:00:55.184Z,3.677063
2023-04-06T07:04:20.458Z,3.868408
2023-04-06T07:07:45.725Z,3.908691
2023-04-06T07:11:10.970Z,3.928833
2023-04-06T07:14:36.247Z,3.969116
2023-04-06T07:18:01.965Z,4.120178
2023-04-06T07:21:27.213Z,4.241028
2023-04-06T07:24:52.481Z,4.52301
2023-04-06T07:28:17.655Z,4.77478
2023-04-06T07:31:42.846Z,4.966125
2023-04-06T07:35:08.077Z,5.117188
2023-04-06T07:38:33.343Z,5.238037
2023-04-06T07:41:58.912Z,5.27832
2023-04-06T07:45:24.272Z,5.419312
2023-04-06T07:48:49.613Z,5.449524
2023-04-06T07:52:14.940Z,5.479736
2023-04-06T07:55:40.306Z,5.509949
2023-04-06T07:59:05.651Z,5.640869
2023-04-06T08:02:31.038Z,5.822144
2023-04-06T08:05:56.361Z,5.973206
2023-04-06T08:09:21.638Z,5.993347
2023-04-06T08:12:47.121Z,6.063843
2023-04-06T08:16:12.528Z,6.094055
2023-04-06T08:19:37.823Z,6.184692
2023-04-06T08:23:03.191Z,6.27533
2023-04-06T08:26:28.605Z,6.40625
2023-04-06T08:29:53.998Z,6.476746
2023-04-06T08:33:19.338Z,6.547241
2023-04-06T08:36:44.707Z,6.557312
2023-04-06T08:40:10.068Z,6.668091
2023-04-06T08:43:35.371Z,6.708374
2023-04-06T08:47:00.719Z,6.768799
2023-04-06T08:50:25.994Z,6.728516
2023-04-06T08:53:51.320Z,6.799011
2023-04-06T08:57:16.592Z,6.90979
2023-04-06T09:00:41.891Z,6.970215
2023-04-06T09:04:09.162Z,7.060852
2023-04-06T09:07:33.533Z,7.252197
2023-04-06T09:10:58.743Z,7.16156
2023-04-06T09:14:23.927Z,7.211914
2023-04-06T09:17:49.794Z,7.423401
2023-04-06T09:21:14.957Z,7.584534
2023-04-06T09:24:40.387Z,7.715454
2023-04-06T09:28:05.568Z,7.715454
2023-04-06T09:31:30.761Z,7.745667
2023-04-06T09:34:55.946Z,7.856445
2023-04-06T09:38:21.143Z,7.977295
2023-04-06T09:41:47.621Z,8.218994
2023-04-06T09:45:11.448Z,8.329773
2023-04-06T09:48:36.734Z,8.410339
2023-04-06T09:52:01.876Z,8.339844
2023-04-06T09:55:27.095Z,8.198853
2023-04-06T09:58:52.338Z,8.148499
2023-04-06T10:02:17.553Z,8.430481
2023-04-06T10:05:42.727Z,8.480835
2023-04-06T10:09:07.978Z,8.662109
2023-04-06T10:12:33.298Z,8.591614
2023-04-06T10:15:58.524Z,8.470764
2023-04-06T10:19:23.802Z,8.299561
2023-04-06T10:22:49.104Z,8.229065
2023-04-06T10:26:14.308Z,8.279419
2023-04-06T10:29:39.637Z,8.450623
2023-04-06T10:33:04.951Z,8.581543
2023-04-06T10:36:30.332Z,8.712463
2023-04-06T10:39:55.743Z,8.92395
2023-04-06T10:43:21.233Z,8.813171
2023-04-06T10:46:46.743Z,8.863525
2023-04-06T10:50:12.172Z,9.135437
2023-04-06T10:53:37.667Z,9.306641
2023-04-06T10:57:03.158Z,9.356995
2023-04-06T11:00:36.237Z,9.457703
2023-04-06T11:03:54.180Z,9.417419
2023-04-06T11:07:19.665Z,9.457703
2023-04-06T11:10:45.177Z,9.568481
2023-04-06T11:14:10.721Z,9.346924
2023-04-06T11:17:36.230Z,9.457703
2023-04-06T11:21:01.574Z,9.42749
2023-04-06T11:24:27.008Z,9.739685
2023-04-06T11:27:52.503Z,9.870605
2023-04-06T11:31:17.865Z,9.870605
2023-04-06T11:34:43.129Z,9.941101
2023-04-06T11:38:08.470Z,9.659119
2023-04-06T11:41:33.793Z,9.719543
2023-04-06T11:44:59.211Z,9.910889
2023-04-06T11:48:25.464Z,9.93103
2023-04-06T11:51:50.019Z,9.719543
2023-04-06T11:55:15.380Z,9.840393
2023-04-06T11:58:40.893Z,10.082092
2023-04-06T12:02:06.074Z,10.253296
2023-04-06T12:05:31.455Z,10.30365
2023-04-06T12:08:56.774Z,10.323792
2023-04-06T12:12:22.109Z,10.404358
2023-04-06T12:15:47.429Z,10.474854
2023-04-06T12:19:12.766Z,10.484924
2023-04-06T12:22:38.114Z,10.343933
2023-04-06T12:26:03.508Z,10.384216
2023-04-06T12:29:28.884Z,10.474854
2023-04-06T12:32:54.265Z,10.525208
2023-04-06T12:36:19.644Z,10.595703
2023-04-06T12:39:44.887Z,10.474854
2023-04-06T12:43:10.193Z,10.4245
2023-04-06T12:46:35.633Z,10.474854
2023-04-06T12:50:00.981Z,10.484924
2023-04-06T12:53:26.327Z,10.454712
2023-04-06T12:56:51.663Z,10.505066
2023-04-06T13:00:17.079Z,10.525208
2023-04-06T13:03:42.424Z,10.585632
2023-04-06T13:07:07.717Z,10.635986
2023-04-06T13:10:33.030Z,10.706482
2023-04-06T13:13:58.378Z,10.726624
2023-04-06T13:17:23.858Z,10.736694
2023-04-06T13:20:49.124Z,10.857544
2023-04-06T13:24:16.393Z,10.80719
2023-04-06T13:27:40.163Z,10.736694
2023-04-06T13:31:05.757Z,10.80719
2023-04-06T13:34:31.315Z,10.837402
2023-04-06T13:37:56.927Z,10.80719
2023-04-06T13:41:22.482Z,10.726624
2023-04-06T13:44:48.171Z,10.726624
2023-04-06T13:48:13.903Z,10.656128
2023-04-06T13:51:39.413Z,10.656128
2023-04-06T13:55:05.061Z,10.635986
2023-04-06T13:58:30.622Z,10.515137
2023-04-06T14:01:56.192Z,10.484924
2023-04-06T14:05:21.794Z,10.474854
2023-04-06T14:08:47.501Z,10.545349
2023-04-06T14:12:12.925Z,10.4245
2023-04-06T14:15:38.260Z,10.333862
2023-04-06T14:19:03.477Z,10.4245
2023-04-06T14:25:53.974Z,10.55542
2023-04-06T14:29:19.361Z,10.666199
2023-04-06T14:32:44.751Z,10.706482
2023-04-06T14:36:10.079Z,10.706482
2023-04-06T14:39:35.404Z,10.776978
2023-04-06T14:43:00.704Z,10.776978
2023-04-06T14:46:26.115Z,10.736694
2023-04-06T14:49:51.306Z,10.625916
2023-04-06T14:53:16.562Z,10.505066
2023-04-06T14:56:41.909Z,10.484924
2023-04-06T15:00:07.259Z,10.343933
2023-04-06T15:03:32.620Z,10.343933
2023-04-06T15:40:16.793Z,9.991455
2023-04-06T15:43:42.051Z,9.991455
2023-04-06T15:47:07.383Z,9.790039
2023-04-06T15:50:32.646Z,9.739685
2023-04-06T15:53:57.944Z,9.749756
2023-04-06T15:57:23.243Z,9.719543
2023-04-06T16:00:48.528Z,9.67926
2023-04-06T16:04:13.832Z,9.638977
2023-04-06T16:07:39.148Z,9.608765
2023-04-06T16:11:04.948Z,9.608765
2023-04-06T16:14:30.876Z,9.709473
2023-04-06T16:17:58.204Z,9.689331
2023-04-06T16:21:24.551Z,9.689331
2023-04-06T16:24:51.452Z,9.659119
2023-04-06T16:28:18.330Z,9.568481
2023-04-06T16:31:45.299Z,9.42749
2023-04-06T16:35:11.589Z,9.377136
2023-04-06T16:38:37.498Z,9.377136
2023-04-06T16:42:04.127Z,9.417419
2023-04-06T16:45:30.334Z,9.457703
2023-04-06T16:48:57.106Z,9.467773
2023-04-06T16:52:23.500Z,9.387207
2023-04-06T16:55:53.235Z,9.346924
2023-04-06T16:59:19.422Z,9.236145
2023-04-06T17:02:46.875Z,9.105225
2023-04-06T17:06:15.178Z,8.954163
2023-04-06T17:09:41.513Z,8.813171
2023-04-06T17:13:07.771Z,8.772888
2023-04-06T17:16:34.300Z,8.742676
2023-04-06T17:20:00.165Z,8.682251
2023-04-06T17:23:26.476Z,8.621826
2023-04-06T17:26:53.104Z,8.551331
2023-04-06T17:30:20.007Z,8.440552
2023-04-06T17:33:46.313Z,8.299561
2023-04-06T17:37:13.176Z,8.198853
2023-04-06T17:40:40.617Z,8.047791
2023-04-06T17:44:07.380Z,7.91687
2023-04-06T17:47:33.888Z,7.735596
2023-04-06T17:51:00.649Z,7.53418
2023-04-06T17:54:27.162Z,7.312622
2023-04-06T17:57:53.750Z,7.131348
2023-04-06T18:01:20.384Z,6.980286
2023-04-06T18:04:46.825Z,6.849365
2023-04-06T18:08:13.223Z,6.768799
2023-04-06T18:11:39.696Z,6.617737
2023-04-06T18:15:06.339Z,6.325684
2023-04-06T18:18:32.840Z,6.063843
2023-04-06T18:21:59.363Z,5.892639
2023-04-06T18:25:25.815Z,5.711365
2023-04-06T18:28:52.386Z,5.681152
2023-04-06T18:32:18.756Z,5.610657
2023-04-06T18:35:45.096Z,5.358887
2023-04-06T18:39:10.854Z,5.26825
2023-04-06T18:42:36.623Z,5.26825
2023-04-06T18:46:02.338Z,5.358887
2023-04-06T18:49:28.054Z,5.389099
2023-04-06T18:52:53.816Z,5.449524
2023-04-06T18:56:19.801Z,5.429382
2023-04-06T18:59:45.224Z,5.459595
2023-04-06T19:03:11.154Z,5.379028
2023-04-06T19:06:36.746Z,5.117188
2023-04-06T19:10:02.398Z,4.77478
2023-04-06T19:13:28.201Z,4.603577
2023-04-06T19:16:54.007Z,4.482727
2023-04-06T19:20:19.540Z,4.402161
2023-04-06T19:23:45.260Z,4.27124
2023-04-06T19:27:10.974Z,4.230957
2023-04-06T19:30:36.632Z,4.089966
2023-04-06T19:34:02.419Z,4.059753
2023-04-06T19:37:28.165Z,4.200745
2023-04-06T19:40:53.953Z,4.230957
2023-04-06T19:44:19.607Z,4.261169
2023-04-06T19:47:45.311Z,4.412231
2023-04-06T19:51:10.924Z,4.452515
2023-04-06T19:54:36.547Z,4.472656
2023-04-06T19:58:02.223Z,4.442444
2023-04-06T20:01:27.958Z,4.412231
2023-04-06T20:04:53.594Z,4.331665
2023-04-06T20:08:19.270Z,4.220886
2023-04-06T20:11:44.923Z,4.049683
2023-04-06T20:15:10.618Z,3.898621
2023-04-06T20:18:36.218Z,3.777771
2023-04-06T20:22:01.886Z,3.828125
2023-04-06T20:25:27.830Z,3.838196
2023-04-06T20:28:53.615Z,3.858337
2023-04-06T20:32:19.276Z,3.858337
2023-04-06T20:35:44.856Z,3.959045
2023-04-06T20:39:10.487Z,3.999329
2023-04-06T20:42:36.179Z,4.01947
2023-04-06T20:46:01.825Z,4.039612
2023-04-06T20:49:27.433Z,4.089966
2023-04-06T20:52:53.055Z,4.089966
2023-04-06T20:56:18.693Z,4.14032
2023-04-06T20:59:44.371Z,4.110107
2023-04-06T21:03:10.066Z,4.120178
2023-04-06T21:06:35.739Z,4.180603
2023-04-06T21:10:01.376Z,4.180603
2023-04-06T21:13:27.096Z,4.14032
2023-04-06T21:16:52.737Z,4.200745
2023-04-06T21:20:18.345Z,4.220886
2023-04-06T21:23:44.079Z,4.27124
2023-04-06T21:27:09.768Z,4.321594
2023-04-06T21:30:35.429Z,4.160461
2023-04-06T21:34:01.047Z,4.059753
2023-04-06T21:37:26.657Z,3.959045
2023-04-06T21:40:52.327Z,3.697205
2023-04-06T21:44:18.096Z,3.475647
2023-04-06T21:47:43.608Z,3.354797
2023-04-06T21:51:09.231Z,3.143311
2023-04-06T21:54:34.917Z,3.103027
2023-04-06T21:58:00.596Z,3.153381
2023-04-06T22:01:27.715Z,3.173523
2023-04-06T22:04:52.001Z,3.244019
2023-04-06T22:08:20.944Z,3.13324
2023-04-06T22:11:43.179Z,2.921753
2023-04-06T22:15:08.858Z,2.740479
2023-04-06T22:18:36.109Z,2.589417
2023-04-06T22:22:00.202Z,2.528992
2023-04-06T22:25:25.851Z,2.569275
2023-04-06T22:28:51.475Z,2.559204
2023-04-06T22:32:17.166Z,2.589417
2023-04-06T22:35:42.831Z,2.6297
2023-04-06T22:39:08.427Z,2.518921
2023-04-06T22:42:34.022Z,2.357788
2023-04-06T22:45:59.683Z,2.176514
2023-04-06T22:49:25.350Z,2.156372
2023-04-06T22:52:51.011Z,2.196655
2023-04-06T22:56:16.610Z,2.196655
2023-04-06T22:59:42.205Z,2.085876
2023-04-06T23:03:08.082Z,2.025452
2023-04-06T23:06:33.552Z,2.13623
2023-04-06T23:09:59.150Z,2.116089
2023-04-06T23:13:24.751Z,2.236938
2023-04-06T23:16:50.451Z,2.37793
2023-04-06T23:20:16.000Z,2.488708
2023-04-06T23:23:41.658Z,2.539062
2023-04-06T23:27:07.280Z,2.609558
2023-04-06T23:30:32.870Z,2.609558
2023-04-06T23:33:58.498Z,2.458496
2023-04-06T23:37:24.064Z,2.337646
2023-04-06T23:40:49.739Z,2.267151
2023-04-06T23:44:16.068Z,2.247009
2023-04-06T23:47:41.672Z,2.226868
2023-04-06T23:51:07.330Z,2.206726
2023-04-06T23:54:32.974Z,2.196655
2023-04-06T23:57:58.554Z,2.025452
